createdAt,value
2019-02-20T00:00:10.119Z,54.59
2019-02-20T00:05:07.693Z,54.86
2019-02-20T00:10:04.723Z,55.13
2019-02-20T00:15:01.701Z,54.15
2019-02-20T00:19:58.729Z,54.49
2019-02-20T00:24:57.773Z,55.42
2019-02-20T00:29:54.770Z,56.02
2019-02-20T00:34:51.887Z,55.82
2019-02-20T00:39:48.930Z,56.61
2019-02-20T00:44:54.944Z,55.83
2019-02-20T00:49:51.910Z,56.47
2019-02-20T00:54:48.866Z,56.58
2019-02-20T00:59:45.842Z,56.59
2019-02-20T01:04:42.912Z,57.05
2019-02-20T01:09:41.769Z,57.22
2019-02-20T01:14:38.787Z,56.66
2019-02-20T01:19:35.789Z,57.64
2019-02-20T01:24:32.795Z,57.05
2019-02-20T01:29:30.235Z,57.64
2019-02-20T01:34:27.209Z,56.99
2019-02-20T01:39:24.326Z,56.05
2019-02-20T01:44:21.414Z,54.85
2019-02-20T01:49:18.391Z,54.25
2019-02-20T01:54:15.426Z,53.52
2019-02-20T01:59:14.247Z,53.11
2019-02-20T02:04:11.245Z,52.56
2019-02-20T02:09:08.448Z,53.00
2019-02-20T02:14:05.569Z,52.54
2019-02-20T02:19:02.560Z,52.39
2019-02-20T02:23:59.555Z,53.31
2019-02-20T02:28:56.730Z,53.54
2019-02-20T02:33:55.629Z,53.77
2019-02-20T02:38:52.638Z,55.20
2019-02-20T02:43:49.835Z,56.14
2019-02-20T02:48:46.901Z,57.35
2019-02-20T02:53:44.003Z,58.41
2019-02-20T02:58:41.059Z,58.92
2019-02-20T03:03:38.219Z,59.36
2019-02-20T03:08:35.221Z,59.79
2019-02-20T03:13:32.289Z,59.19
2019-02-20T03:18:29.234Z,59.46
2019-02-20T03:23:26.214Z,60.52
2019-02-20T03:28:23.162Z,60.96
2019-02-20T03:33:20.162Z,61.00
2019-02-20T03:38:17.331Z,61.22
2019-02-20T03:43:14.475Z,62.08
2019-02-20T03:48:11.571Z,62.28
2019-02-20T03:53:08.743Z,61.93
2019-02-20T03:58:05.729Z,61.71
2019-02-20T04:03:02.859Z,61.63
2019-02-20T04:07:59.881Z,61.71
2019-02-20T04:12:56.988Z,61.46
2019-02-20T04:17:54.106Z,62.14
2019-02-20T04:22:51.225Z,61.63
2019-02-20T04:27:48.255Z,61.85
2019-02-20T04:32:45.301Z,61.79
2019-02-20T04:37:42.248Z,61.77
2019-02-20T04:42:39.354Z,61.68
2019-02-20T04:47:36.753Z,61.76
2019-02-20T04:52:35.839Z,61.47
2019-02-20T04:57:32.813Z,62.05
2019-02-20T05:02:29.832Z,61.80
2019-02-20T05:07:26.804Z,61.32
2019-02-20T05:12:23.871Z,61.63
2019-02-20T05:17:21.038Z,61.08
2019-02-20T05:22:18.115Z,61.03
2019-02-20T05:27:15.055Z,61.18
2019-02-20T05:32:12.166Z,61.10
2019-02-20T05:37:09.149Z,61.25
2019-02-20T05:42:06.340Z,61.13
2019-02-20T05:47:03.433Z,61.15
2019-02-20T05:52:00.510Z,61.42
2019-02-20T05:56:59.078Z,62.08
2019-02-20T06:02:00.196Z,62.11
2019-02-20T06:06:57.130Z,62.52
2019-02-20T06:11:54.335Z,61.96
2019-02-20T06:16:51.366Z,61.62
2019-02-20T06:21:54.114Z,61.55
2019-02-20T06:26:51.131Z,60.72
2019-02-20T06:31:48.215Z,60.68
2019-02-20T06:36:45.152Z,60.57
2019-02-20T06:41:44.057Z,60.58
2019-02-20T06:46:41.071Z,59.82
2019-02-20T06:51:40.842Z,59.97
2019-02-20T06:56:37.951Z,58.92
2019-02-20T07:01:35.964Z,58.56
2019-02-20T07:06:59.686Z,58.52
2019-02-20T07:12:17.239Z,58.46
2019-02-20T07:17:47.859Z,59.19
2019-02-20T07:23:24.105Z,59.30
2019-02-20T07:28:36.725Z,58.68
2019-02-20T07:33:33.990Z,58.60
2019-02-20T07:38:32.979Z,59.10
2019-02-20T07:43:30.380Z,59.44
2019-02-20T07:48:30.334Z,59.21
2019-02-20T07:53:31.423Z,59.09
2019-02-20T07:58:29.988Z,59.05
2019-02-20T08:03:29.529Z,59.48
2019-02-20T08:08:26.217Z,57.51
2019-02-20T08:13:26.638Z,56.81
2019-02-20T08:18:24.483Z,56.05
2019-02-20T08:23:23.493Z,54.23
2019-02-20T08:47:53.408Z,54.59
2019-02-20T12:11:58.486Z,46.35
2019-02-20T12:16:55.772Z,45.09
2019-02-20T12:21:52.975Z,45.00
2019-02-20T12:26:52.830Z,44.85
2019-02-20T12:31:52.700Z,44.12
2019-02-20T12:36:50.991Z,44.24
2019-02-20T12:41:49.281Z,44.11
2019-02-20T12:46:50.280Z,43.69
2019-02-20T12:51:52.717Z,43.97
2019-02-20T12:56:49.926Z,43.08
2019-02-20T13:01:49.707Z,40.75
2019-02-20T13:06:46.980Z,40.56
2019-02-20T13:11:45.844Z,39.70
2019-02-20T13:16:42.954Z,39.86
2019-02-20T13:21:45.567Z,41.12
2019-02-20T13:26:53.192Z,44.10
2019-02-20T13:31:49.523Z,45.61
2019-02-20T13:36:46.606Z,46.34
2019-02-20T13:41:49.829Z,45.27
2019-02-20T13:46:58.759Z,47.50
2019-02-20T13:52:02.107Z,49.02
2019-02-20T13:57:03.380Z,49.28
2019-02-20T14:02:10.037Z,49.06
2019-02-20T14:07:11.484Z,48.26
2019-02-20T14:12:12.986Z,47.59
2019-02-20T14:17:15.393Z,48.45
2019-02-20T14:22:21.376Z,48.46
2019-02-20T14:27:32.107Z,48.37
2019-02-20T14:32:23.561Z,49.25
2019-02-20T14:37:23.379Z,48.99
2019-02-20T14:42:29.430Z,49.96
2019-02-20T14:47:28.390Z,50.44
2019-02-20T14:52:25.489Z,50.51
2019-02-20T14:57:23.334Z,50.76
2019-02-20T15:02:22.923Z,50.14
2019-02-20T15:07:23.803Z,50.94
2019-02-20T15:12:26.042Z,50.63
2019-02-20T15:17:24.289Z,51.39
2019-02-20T15:22:22.856Z,51.97
2019-02-20T15:27:28.718Z,52.09
2019-02-20T15:32:22.016Z,51.60
2019-02-20T15:37:19.070Z,51.27
2019-02-20T15:42:16.608Z,51.23
2019-02-20T15:47:13.844Z,51.11
2019-02-20T15:52:10.996Z,51.37
2019-02-20T15:57:08.033Z,51.54
2019-02-20T16:02:07.271Z,51.34
2019-02-20T16:07:04.374Z,51.76
2019-02-20T16:12:01.509Z,51.94
2019-02-20T16:16:58.827Z,51.42
2019-02-20T16:21:55.940Z,51.19
2019-02-20T16:26:55.795Z,51.60
2019-02-20T16:31:53.287Z,51.80
2019-02-20T16:36:50.358Z,51.68
2019-02-20T16:41:47.480Z,51.75
2019-02-20T16:46:44.874Z,51.65
2019-02-20T16:51:41.935Z,52.21
2019-02-20T16:56:41.583Z,52.70
2019-02-20T17:01:38.636Z,52.95
2019-02-20T17:06:35.709Z,52.54
2019-02-20T17:11:33.398Z,53.38
2019-02-20T17:16:30.610Z,54.31
2019-02-20T17:21:27.858Z,54.30
2019-02-20T17:26:25.230Z,55.13
2019-02-20T17:31:22.312Z,54.91
2019-02-20T17:36:22.413Z,54.84
2019-02-20T17:41:19.725Z,55.09
2019-02-20T17:46:18.845Z,56.47
2019-02-20T17:51:16.135Z,56.26
2019-02-20T17:56:13.178Z,56.82
2019-02-20T18:01:12.286Z,56.98
2019-02-20T18:06:09.252Z,58.49
2019-02-20T18:11:07.490Z,58.12
2019-02-20T18:16:05.741Z,57.74
2019-02-20T18:21:02.887Z,57.76
2019-02-20T18:25:59.874Z,56.86
2019-02-20T18:30:56.948Z,56.50
2019-02-20T18:35:55.801Z,55.84
2019-02-20T18:40:52.858Z,55.14
2019-02-20T18:45:52.233Z,55.01
2019-02-20T18:50:51.081Z,55.07
2019-02-20T18:55:48.159Z,54.87
2019-02-20T19:00:45.554Z,54.88
2019-02-20T19:05:42.717Z,54.11
2019-02-20T19:10:40.807Z,54.43
2019-02-20T19:15:49.250Z,53.85
2019-02-20T19:20:57.428Z,54.00
2019-02-20T19:26:33.522Z,53.41
2019-02-20T19:31:57.464Z,53.21
2019-02-20T19:37:12.317Z,53.04
2019-02-20T19:42:26.080Z,52.68
2019-02-20T19:48:02.054Z,52.54
2019-02-20T19:53:07.349Z,52.08
2019-02-20T19:58:30.135Z,51.93
2019-02-20T20:04:04.406Z,51.97
2019-02-20T20:09:28.397Z,51.82
2019-02-20T20:14:40.040Z,51.73
2019-02-20T20:19:45.496Z,51.85
2019-02-20T20:24:59.708Z,51.58
2019-02-20T20:30:05.737Z,51.39
2019-02-20T20:35:32.547Z,51.20
2019-02-20T20:40:44.788Z,51.06
2019-02-20T20:46:11.667Z,51.05
2019-02-20T20:51:58.550Z,50.77
2019-02-20T20:57:19.265Z,50.74
2019-02-20T21:02:30.631Z,50.68
2019-02-20T21:07:53.027Z,50.33
2019-02-20T21:13:24.477Z,50.76
2019-02-20T21:19:00.936Z,50.45
2019-02-20T21:24:47.346Z,50.21
2019-02-20T21:29:58.978Z,50.38
2019-02-20T21:35:10.357Z,50.31
2019-02-20T21:40:25.170Z,50.09
2019-02-20T21:45:45.468Z,50.02
2019-02-20T21:51:26.053Z,50.16
2019-02-20T21:56:49.941Z,49.49
2019-02-20T22:02:04.606Z,49.94
2019-02-20T22:07:32.836Z,49.42
2019-02-20T22:12:53.185Z,49.94
2019-02-20T22:18:21.051Z,49.48
2019-02-20T22:23:46.731Z,49.47
2019-02-20T22:28:58.042Z,49.13
2019-02-20T22:34:38.455Z,49.40
2019-02-20T22:39:53.025Z,49.21
2019-02-20T22:45:33.464Z,49.41
2019-02-20T22:51:11.772Z,48.76
2019-02-20T22:56:45.816Z,48.63
2019-02-20T23:02:12.507Z,48.60
2019-02-20T23:07:20.489Z,48.69
2019-02-20T23:12:49.258Z,48.04
2019-02-20T23:17:46.227Z,48.24
2019-02-20T23:22:43.333Z,47.78
2019-02-20T23:27:40.356Z,48.29
2019-02-20T23:32:37.369Z,48.53
2019-02-20T23:37:34.433Z,48.33
2019-02-20T23:42:33.356Z,48.46
2019-02-20T23:47:32.441Z,47.96
2019-02-20T23:52:29.481Z,48.55
2019-02-20T23:57:26.497Z,48.65
